Time;durP1;ratioP1;P1;durP2;ratioP2;P2;SDS_P1;SDS_P2;PMS_P1;PMS_P2;Temp;Humidity;BMP_temperature;BMP_pressure;BME280_temperature;BME280_humidity;BME280_pressure;Samples;Min_cycle;Max_cycle;Signal;HPM_P1;HPM_P2
2022/06/09 00:01:20;;;;;;;23.40;18.60;;;;;;;17.06;80.08;97872.16;432595;1271;98329;-42
2022/06/09 00:11:28;;;;;;;21.10;18.30;;;;;;;16.94;80.48;97869.23;432610;1271;112377;-40
2022/06/09 00:21:35;;;;;;;22.80;20.30;;;;;;;16.86;80.73;97864.48;432545;1271;107802;-40
2022/06/09 00:31:43;;;;;;;22.90;19.40;;;;;;;16.73;81.19;97842.67;432622;1271;99330;-41
2022/06/09 00:41:50;;;;;;;23.90;19.90;;;;;;;16.65;81.45;97829.10;431815;1273;109177;-39
2022/06/09 00:51:55;;;;;;;23.80;19.60;;;;;;;16.62;81.94;97814.67;432443;1271;98846;-42
2022/06/09 01:02:06;;;;;;;22.20;18.10;;;;;;;16.69;81.97;97815.59;432450;1271;111071;-42
2022/06/09 01:12:25;;;;;;;24.40;19.50;;;;;;;16.67;81.98;97817.85;432438;1271;108662;-42
2022/06/09 01:22:31;;;;;;;;;;;;;;;16.70;82.12;97815.80;433465;1261;99288;-41
2022/06/09 01:32:36;;;;;;;22.90;19.10;;;;;;;16.52;82.43;97796.33;433808;1267;108830;-40
2022/06/09 01:42:45;;;;;;;25.00;19.40;;;;;;;16.47;82.84;97785.18;433676;1267;99255;-41
2022/06/09 01:52:51;;;;;;;22.00;18.70;;;;;;;16.55;82.84;97784.27;433758;1267;112628;-39
2022/06/09 02:03:02;;;;;;;49.80;35.60;;;;;;;16.56;82.93;97788.31;433712;1267;108894;-39
2022/06/09 02:13:14;;;;;;;30.70;21.30;;;;;;;16.63;83.17;97798.80;433719;1267;99192;-43
2022/06/09 02:23:22;;;;;;;26.50;20.30;;;;;;;16.75;83.24;97845.89;433528;1267;108948;-41
2022/06/09 02:33:29;;;;;;;25.50;20.50;;;;;;;16.69;83.76;97890.08;433488;1268;99308;-41
2022/06/09 02:43:37;;;;;;;26.90;20.20;;;;;;;16.70;83.87;97876.13;433641;1267;112311;-40
2022/06/09 02:53:44;;;;;;;19.70;17.40;;;;;;;16.79;83.71;97860.63;433605;1267;108824;-41
2022/06/09 03:03:52;;;;;;;20.20;17.00;;;;;;;16.72;83.36;97853.30;433516;1267;99404;-42
2022/06/09 03:13:59;;;;;;;14.40;10.70;;;;;;;16.67;83.44;97855.77;433761;1267;108773;-40
2022/06/09 03:24:08;;;;;;;10.60;6.40;;;;;;;16.58;83.54;97859.17;433640;1267;99157;-43
2022/06/09 03:34:15;;;;;;;4.80;4.00;;;;;;;16.31;83.26;97845.32;433528;1267;112487;-42
2022/06/09 03:44:22;;;;;;;2.60;2.40;;;;;;;16.02;83.51;97819.80;433701;1267;107096;-41
2022/06/09 03:54:30;;;;;;;2.40;2.20;;;;;;;15.76;83.96;97799.71;433602;1267;99245;-41
2022/06/09 04:04:37;;;;;;;3.70;2.80;;;;;;;15.67;84.37;97783.56;433625;1267;108261;-44
2022/06/09 04:14:47;;;;;;;3.30;2.50;;;;;;;15.71;84.24;97767.15;433424;1267;98864;-41
2022/06/09 04:24:55;;;;;;;4.70;3.80;;;;;;;15.89;84.67;97776.27;433590;1267;111942;-41
2022/06/09 04:35:02;;;;;;;14.50;5.90;;;;;;;16.22;84.51;97753.98;433582;1267;109090;-42
2022/06/09 04:45:11;;;;;;;5.90;4.00;;;;;;;16.26;84.30;97775.27;433726;1267;99243;-40
2022/06/09 04:55:18;;;;;;;3.70;3.40;;;;;;;16.53;84.27;97782.55;433788;1267;107709;-42
2022/06/09 05:05:27;;;;;;;4.20;2.70;;;;;;;16.82;84.10;97785.92;433705;1267;98925;-40
2022/06/09 05:15:36;;;;;;;3.70;3.10;;;;;;;18.04;84.28;97792.13;433759;1267;112332;-43
2022/06/09 05:25:44;;;;;;;2.90;2.70;;;;;;;19.34;82.90;97793.38;433585;1267;108762;-41
2022/06/09 05:35:52;;;;;;;3.40;3.10;;;;;;;20.18;82.53;97792.54;433401;1270;98043;-43
2022/06/09 05:46:00;;;;;;;2.80;2.50;;;;;;;21.53;80.99;97793.99;433370;1270;109712;-42
2022/06/09 05:56:07;;;;;;;3.70;2.10;;;;;;;22.45;79.59;97807.38;433291;1268;99250;-42
2022/06/09 06:16:46;;;;;;;2.70;2.40;;;;;;;22.93;75.93;97826.84;433016;1270;108896;-41
2022/06/09 06:26:54;;;;;;;8.50;5.50;;;;;;;23.05;74.74;97828.65;433331;1269;99244;-41
2022/06/09 06:37:01;;;;;;;14.50;6.90;;;;;;;23.29;73.82;97836.27;433573;1269;108908;-41
2022/06/09 06:47:07;;;;;;;15.30;9.20;;;;;;;23.94;73.60;97841.51;433385;1270;99313;-41
2022/06/09 06:57:14;;;;;;;14.20;7.80;;;;;;;24.58;72.67;97843.70;433250;1271;112414;-40
2022/06/09 07:07:22;;;;;;;6.00;4.60;;;;;;;24.59;70.93;97856.73;433230;1269;109007;-41
2022/06/09 07:17:29;;;;;;;5.70;4.20;;;;;;;24.42;70.57;97857.17;433273;1270;99315;-41
2022/06/09 07:27:37;;;;;;;4.00;3.70;;;;;;;25.02;69.20;97853.04;433378;1271;112536;-40
2022/06/09 07:37:44;;;;;;;3.40;3.10;;;;;;;25.91;68.40;97854.64;433241;1269;107684;-41
2022/06/09 07:47:51;;;;;;;3.70;3.50;;;;;;;25.97;66.55;97860.28;433237;1271;98854;-40
2022/06/09 07:57:59;;;;;;;6.60;4.60;;;;;;;25.86;64.09;97867.73;433219;1269;108619;-41
2022/06/09 08:08:05;;;;;;;6.40;4.60;;;;;;;25.84;63.83;97864.92;433306;1269;98060;-41
2022/06/09 08:18:12;;;;;;;7.70;5.30;;;;;;;26.11;63.68;97867.21;433246;1269;111379;-42
2022/06/09 08:28:20;;;;;;;6.50;5.90;;;;;;;25.77;62.25;97861.86;433097;1269;109136;-41
2022/06/09 08:38:28;;;;;;;7.80;7.00;;;;;;;25.73;61.96;97860.60;433160;1269;98945;-41
2022/06/09 08:48:34;;;;;;;9.50;8.80;;;;;;;25.95;62.38;97860.46;432912;1270;108837;-41
2022/06/09 08:58:42;;;;;;;13.10;8.60;;;;;;;26.33;61.59;97860.17;433332;1268;99256;-40
2022/06/09 09:08:50;;;;;;;11.90;10.70;;;;;;;26.32;60.91;97863.63;433243;1269;112499;-40
2022/06/09 09:29:13;;;;;;;11.70;10.60;;;;;;;25.16;60.61;97877.44;433041;1269;418730;-40
2022/06/09 09:39:22;;;;;;;10.80;9.80;;;;;;;25.33;61.30;97875.42;433324;1270;108815;-41
2022/06/09 09:49:31;;;;;;;11.00;9.90;;;;;;;25.16;60.49;97875.34;432994;1268;99337;-40
2022/06/09 09:59:42;;;;;;;10.70;9.70;;;;;;;24.92;61.02;97876.40;433248;1269;112610;-42
2022/06/09 10:10:09;;;;;;;12.00;10.70;;;;;;;24.59;61.29;97876.58;433231;1270;108770;-42
2022/06/09 10:20:33;;;;;;;11.50;10.60;;;;;;;24.85;61.79;97871.79;433257;1270;99280;-42
2022/06/09 10:30:47;;;;;;;12.60;11.50;;;;;;;25.23;61.34;97868.21;433468;1269;108928;-40
2022/06/09 10:40:56;;;;;;;12.70;11.40;;;;;;;25.27;61.28;97862.90;433212;1269;99066;-42
2022/06/09 11:01:35;;;;;;;13.30;12.00;;;;;;;24.04;61.26;97849.33;433018;1270;109188;-41
2022/06/09 11:11:46;;;;;;;12.50;11.20;;;;;;;24.56;62.50;97852.20;433296;1269;99277;-40
2022/06/09 11:22:02;;;;;;;13.80;12.50;;;;;;;25.40;61.83;97847.88;433266;1270;107798;-40
2022/06/09 11:32:09;;;;;;;8.20;7.20;;;;;;;25.91;61.36;97853.54;433113;1270;99333;-40
2022/06/09 11:42:16;;;;;;;9.80;5.90;;;;;;;25.13;59.35;97847.34;433174;1270;112627;-43
2022/06/09 12:02:36;;;;;;;8.20;5.50;;;;;;;24.47;59.29;97853.81;433397;1270;99251;-40
2022/06/09 12:23:26;;;;;;;6.40;5.80;;;;;;;22.65;60.20;97867.58;433177;1271;98847;-40
2022/06/09 12:33:34;;;;;;;9.50;7.80;;;;;;;22.97;61.17;97866.16;433241;1268;112488;-42
2022/06/09 12:43:44;;;;;;;9.50;8.60;;;;;;;23.70;61.28;97872.03;433415;1271;107400;-39
2022/06/09 12:53:59;;;;;;;13.50;9.30;;;;;;;23.79;61.24;97853.66;433072;1269;99355;-40
2022/06/09 13:04:05;;;;;;;9.00;8.10;;;;;;;23.83;61.78;97849.34;433186;1271;108825;-40
2022/06/09 13:14:10;;;;;;;8.10;7.40;;;;;;;23.84;62.11;97864.96;433385;1270;99272;-39
2022/06/09 13:34:22;;;;;;;6.40;5.80;;;;;;;23.55;62.74;97869.13;433035;1269;108784;-38
2022/06/09 13:44:35;;;;;;;8.10;7.00;;;;;;;24.05;62.43;97881.31;433294;1271;99257;-42
2022/06/09 13:54:49;;;;;;;7.60;6.70;;;;;;;24.38;62.23;97869.51;433239;1271;108801;-41
2022/06/09 14:04:57;;;;;;;7.10;6.40;;;;;;;24.53;60.50;97848.44;433100;1269;99243;-41
2022/06/09 14:15:04;;;;;;;9.60;6.60;;;;;;;24.27;60.21;97857.48;432857;1270;112176;-40
2022/06/09 14:25:10;;;;;;;5.20;4.70;;;;;;;24.06;60.07;97862.30;432879;1271;108868;-42
2022/06/09 14:35:18;;;;;;;7.60;6.20;;;;;;;23.43;60.15;97886.94;432672;1271;99253;-43
2022/06/09 14:45:25;;;;;;;7.20;6.60;;;;;;;23.20;61.26;97872.17;432470;1270;108594;-41
2022/06/09 14:55:36;;;;;;;7.90;7.30;;;;;;;23.56;61.79;97883.35;432929;1269;99299;-43
2022/06/09 15:05:44;;;;;;;9.90;9.00;;;;;;;23.45;62.01;97891.33;432991;1270;112467;-41
2022/06/09 15:15:52;;;;;;;7.90;7.10;;;;;;;23.00;62.95;97906.70;433109;1270;108700;-40
2022/06/09 15:25:59;;;;;;;5.10;4.70;;;;;;;22.75;63.83;97932.04;432870;1269;99288;-43
2022/06/09 15:36:07;;;;;;;4.60;4.20;;;;;;;22.24;64.12;97957.89;432703;1270;108887;-40
2022/06/09 15:46:15;;;;;;;4.60;4.20;;;;;;;21.73;64.77;97953.33;432682;1270;99347;-40
2022/06/09 15:56:23;;;;;;;4.90;4.50;;;;;;;21.20;65.54;97980.01;432709;1270;112508;-42
2022/06/09 16:06:31;;;;;;;8.00;5.90;;;;;;;20.69;66.73;97986.80;432751;1270;108806;-44
2022/06/09 16:16:44;;;;;;;10.00;6.70;;;;;;;20.68;67.82;97967.11;432756;1270;99250;-41
2022/06/09 16:26:51;;;;;;;11.00;8.00;;;;;;;20.50;68.51;98001.61;432906;1269;108845;-42
2022/06/09 16:47:05;;;;;;;13.00;9.10;;;;;;;20.14;70.34;98090.69;432693;1270;111864;-44
2022/06/09 16:57:13;;;;;;;9.30;7.60;;;;;;;19.69;72.24;98142.07;433084;1271;108828;-43
2022/06/09 17:07:22;;;;;;;6.50;3.30;;;;;;;19.43;72.14;98156.16;433343;1269;98851;-42
2022/06/09 17:17:31;;;;;;;9.20;2.80;;;;;;;19.15;72.04;98158.31;433194;1268;107824;-42
2022/06/09 17:27:39;;;;;;;4.20;2.90;;;;;;;18.80;71.68;98149.39;433263;1270;99408;-43
2022/06/09 17:37:45;;;;;;;7.00;2.60;;;;;;;18.03;71.74;98153.04;433331;1270;111264;-41
2022/06/09 17:47:54;;;;;;;4.90;3.20;;;;;;;17.61;72.32;98199.73;432878;1270;107439;-42
2022/06/09 17:58:00;;;;;;;;;;;;;;;17.25;72.72;98209.05;432869;1269;98052;-41
2022/06/09 18:18:18;;;;;;;4.70;3.40;;;;;;;16.67;75.16;98174.23;433046;1270;98866;-42
2022/06/09 18:28:27;;;;;;;4.60;3.40;;;;;;;16.79;75.41;98180.16;433065;1269;112164;-42
2022/06/09 18:38:35;;;;;;;5.30;4.50;;;;;;;16.86;75.38;98186.09;433036;1270;107662;-41
2022/06/09 18:48:42;;;;;;;3.90;3.20;;;;;;;16.88;75.71;98187.84;433272;1269;99975;-41
2022/06/09 18:58:50;;;;;;;4.60;3.40;;;;;;;16.88;75.79;98203.21;433435;1269;108804;-43
2022/06/09 19:19:04;;;;;;;5.70;3.50;;;;;;;16.96;76.20;98210.02;433447;1269;112303;-41
2022/06/09 19:29:12;;;;;;;4.80;3.40;;;;;;;16.90;76.55;98202.77;433312;1269;108767;-40
2022/06/09 19:39:20;;;;;;;5.10;4.60;;;;;;;16.97;76.89;98190.77;433387;1269;99247;-40
2022/06/09 19:49:29;;;;;;;5.90;5.20;;;;;;;17.02;77.15;98183.09;433409;1270;108706;-41
2022/06/09 19:59:34;;;;;;;;;;;;;;;17.04;77.22;98191.32;433296;1271;99545;-42
2022/06/09 20:09:42;;;;;;;6.00;5.40;;;;;;;17.01;77.51;98191.87;433612;1269;112995;-41
2022/06/09 20:19:52;;;;;;;7.80;5.10;;;;;;;16.92;77.57;98172.25;433351;1269;108787;-41
2022/06/09 20:29:59;;;;;;;5.70;4.80;;;;;;;16.82;77.70;98168.13;433434;1270;99526;-42
2022/06/09 20:40:07;;;;;;;7.70;5.60;;;;;;;16.72;77.99;98177.71;433431;1269;108921;-42
2022/06/09 20:50:23;;;;;;;6.80;5.90;;;;;;;16.68;78.19;98192.43;433649;1269;99248;-40
2022/06/09 21:00:30;;;;;;;8.40;5.90;;;;;;;16.67;78.41;98206.15;433414;1270;112392;-41
2022/06/09 21:21:04;;;;;;;7.20;5.60;;;;;;;16.80;78.84;98269.93;433380;1269;98921;-41
2022/06/09 21:31:11;;;;;;;5.70;4.60;;;;;;;16.88;78.85;98315.42;433313;1270;262603;-41
2022/06/09 21:41:18;;;;;;;6.80;5.40;;;;;;;16.96;78.80;98334.38;433461;1269;99144;-40
2022/06/09 21:51:26;;;;;;;6.80;5.80;;;;;;;16.82;78.77;98348.52;433456;1269;111994;-41
2022/06/09 22:01:33;;;;;;;5.80;5.20;;;;;;;16.72;78.79;98366.57;433395;1268;108787;-40
2022/06/09 22:11:40;;;;;;;9.20;5.40;;;;;;;16.68;79.01;98360.98;433489;1268;99257;-41
2022/06/09 22:21:47;;;;;;;8.30;5.10;;;;;;;16.54;78.93;98386.97;433503;1269;108904;-42
2022/06/09 22:31:55;;;;;;;6.30;5.70;;;;;;;16.43;79.00;98389.38;433457;1269;97994;-41
2022/06/09 22:42:02;;;;;;;7.90;6.40;;;;;;;16.40;79.44;98393.66;433546;1269;112414;-40
2022/06/09 22:52:10;;;;;;;9.60;5.70;;;;;;;16.42;79.59;98396.48;433429;1269;108801;-41
2022/06/09 23:02:17;;;;;;;8.30;6.50;;;;;;;16.36;79.55;98401.20;433490;1269;99254;-40
2022/06/09 23:12:24;;;;;;;7.60;5.90;;;;;;;16.31;79.77;98393.52;433556;1269;108858;-42
2022/06/09 23:22:32;;;;;;;7.30;5.40;;;;;;;16.26;79.88;98396.36;433532;1269;99248;-41
2022/06/09 23:32:39;;;;;;;6.50;5.90;;;;;;;16.21;79.81;98395.05;433492;1270;113160;-43
2022/06/09 23:42:47;;;;;;;8.10;5.70;;;;;;;16.17;79.95;98410.48;433279;1269;108770;-41
2022/06/09 23:52:54;;;;;;;8.90;5.80;;;;;;;16.27;80.38;98412.73;433510;1269;99240;-40
